Tropical Cyclones
[Index]
Main Index Home Page Stock Weather Photos Extreme Storms Discussion Storm News and Storm Chasing Reports Tropical Cyclones / Hurricanes / Typhoons Weather Data and Links Wild Fires / Bushfires Weather Observation Techniques Weather Picture Catalogue Tornado Pictures and Reports Stock Video Footage and DVDs for sale
Season 1980-1981 Tropical Cyclone EDDIE Track Map
Season 1980-1981 Summaries: [BoM-AU] [JTWC-AU] [JTWC-SIO] [JTWC-SPAC] [JTWC-SH]
<<- Previous TC | JTWC 1980-1981 Season | Next TC ->>

click for intensity scale information  Lat/long Grid: Show Hide

 Date Labels: Show Hide

Joint Typhoon Warning Centre Cyclone Data

Name: EDDIE

08 Feb 1981 18:00 UTC to 15 Feb 1981 06:00 UTC

    date/time    lat    long     hPa   cat  kts
1981-02-08 18   13.0   149.6                  20          
1981-02-09 00   13.4   148.7                  20          
1981-02-09 06   13.7   147.7                  25          
1981-02-09 12   13.8   146.8                  30          
1981-02-09 18   13.8   145.6                  35          
1981-02-10 00   14.1   144.2                  30          
1981-02-10 06   14.5   142.8                  25          
1981-02-10 12   15.2   141.4                  30          
1981-02-10 18   15.9   140.0                  35          
1981-02-11 00   16.3   138.9            1     40          
1981-02-11 06   16.7   137.8            1     40          
1981-02-11 12   17.3   136.1                  35          
1981-02-11 18   18.0   134.3                  30          
1981-02-12 00   19.0   132.3                  30          
1981-02-12 06   19.8   130.5                  25          
1981-02-12 12   20.2   129.3                  25          
1981-02-12 18   20.6   128.2                  20          
1981-02-13 00   20.9   127.1                  15          
1981-02-13 06   21.3   126.1                  15          
1981-02-13 12   21.7   125.1                  15          
1981-02-13 18   22.1   124.2                  15          
1981-02-14 00   22.4   123.4                  15          
1981-02-14 06   22.7   122.6                  15          
1981-02-14 12   23.0   121.9                  15          
1981-02-14 18   23.3   121.3                  15          
1981-02-15 00   23.6   120.8                  15          
1981-02-15 06   23.9   120.5                  10          
Winds are 1-min average.

Tropical cyclone tracks developed by Michael Bath using data from the Joint Typhoon Warning Centre Best Tracks and Google Maps.


[Australian Severe Weather index] [Copyright Notice] [Email Contacts] [Search This Site] [Privacy Policy]
Document: tropical_cyclone_eddie.htm Updated: 18 September 2016